Time;durP1;ratioP1;P1;durP2;ratioP2;P2;SDS_P1;SDS_P2;PMS_P1;PMS_P2;Temp;Humidity;BMP_temperature;BMP_pressure;BME280_temperature;BME280_humidity;BME280_pressure;Samples;Min_cycle;Max_cycle;Signal;HPM_P1;HPM_P2
2023/10/07 00:02:11;;;;;;;5.57;2.83;;;;;8.30;94917.00;;;;7394102;19;20648;-78
2023/10/07 00:04:52;;;;;;;5.80;2.73;;;;;9.30;94904.00;;;;7396252;19;20172;-78
2023/10/07 00:07:30;;;;;;;5.27;2.97;;;;;9.60;94907.00;;;;7396839;19;20148;-77
2023/10/07 00:10:03;;;;;;;6.70;3.10;;;;;10.00;94902.00;;;;7398253;19;20536;-78
2023/10/07 00:12:38;;;;;;;5.63;3.00;;;;;10.00;94907.00;;;;7397642;19;20129;-77
2023/10/07 00:15:12;;;;;;;4.43;2.77;;;;;10.10;94902.00;;;;7395410;19;20266;-77
2023/10/07 00:17:47;;;;;;;7.73;3.37;;;;;10.10;94905.00;;;;7397768;19;20135;-77
2023/10/07 00:20:23;;;;;;;5.60;3.03;;;;;10.00;94913.00;;;;7399168;19;20129;-76
2023/10/07 00:22:54;;;;;;;6.25;3.22;;;;;10.40;94912.00;;;;7398678;19;20144;-78
2023/10/07 00:25:30;;;;;;;5.47;2.90;;;;;10.20;94903.00;;;;7396163;19;20168;-78
2023/10/07 00:31:22;;;;;;;6.87;3.03;;;;;9.60;94909.00;;;;7395812;19;20473;-77
2023/10/07 00:34:06;;;;;;;4.53;2.60;;;;;9.20;94916.00;;;;7397277;19;20144;-77
2023/10/07 00:36:41;;;;;;;5.17;2.80;;;;;9.10;94908.00;;;;7397344;19;20252;-79
2023/10/07 00:39:22;;;;;;;5.17;2.90;;;;;8.90;94898.00;;;;7398973;19;20124;-76
2023/10/07 00:41:57;;;;;;;5.67;3.03;;;;;9.10;94900.00;;;;7397171;19;20149;-78
2023/10/07 00:44:33;;;;;;;4.47;2.60;;;;;9.60;94899.00;;;;7395802;19;20164;-78
2023/10/07 00:52:40;;;;;;;7.87;3.30;;;;;10.30;94898.00;;;;7393741;19;20150;-77
2023/10/07 00:55:22;;;;;;;7.37;3.03;;;;;10.30;94902.00;;;;7395563;19;20182;-77
2023/10/07 00:57:54;;;;;;;4.77;2.70;;;;;10.10;94893.00;;;;7396132;19;20140;-79
2023/10/07 01:00:46;;;;;;;6.17;3.33;;;;;10.00;94893.00;;;;7397095;19;20153;-76
2023/10/07 01:03:47;;;;;;;6.70;3.10;;;;;10.10;94888.00;;;;7396574;19;20168;-79
2023/10/07 01:06:25;;;;;;;6.13;3.23;;;;;10.20;94884.00;;;;7396860;19;20178;-80
2023/10/07 01:09:10;;;;;;;6.70;3.17;;;;;10.50;94881.00;;;;7397791;19;20153;-79
2023/10/07 01:11:46;;;;;;;8.20;3.22;;;;;10.80;94874.00;;;;7395451;19;20153;-78
2023/10/07 01:14:14;;;;;;;10.15;3.60;;;;;11.10;94874.00;;;;7396541;19;20159;-78
2023/10/07 01:16:49;;;;;;;6.27;3.20;;;;;11.00;94861.00;;;;7395944;19;20169;-76
2023/10/07 01:19:19;;;;;;;4.75;2.78;;;;;10.90;94858.00;;;;7396032;19;20133;-77
2023/10/07 01:24:45;;;;;;;5.88;3.60;;;;;11.90;94854.00;;;;7397702;19;20222;-78
2023/10/07 01:27:19;;;;;;;8.00;3.58;;;;;11.90;94860.00;;;;7395498;19;20145;-79
2023/10/07 01:30:00;;;;;;;7.03;3.30;;;;;12.10;94858.00;;;;7394117;19;20983;-79
2023/10/07 01:32:42;;;;;;;6.22;3.10;;;;;12.10;94858.00;;;;7397008;19;20145;-79
2023/10/07 01:35:13;;;;;;;7.15;3.60;;;;;12.10;94855.00;;;;7397237;19;20169;-79
2023/10/07 01:37:59;;;;;;;7.82;3.15;;;;;11.90;94853.00;;;;7395814;19;20615;-78
2023/10/07 01:40:31;;;;;;;5.30;3.08;;;;;11.80;94845.00;;;;7394808;19;20144;-78
2023/10/07 01:43:06;;;;;;;7.22;3.15;;;;;11.70;94843.00;;;;7395297;19;20615;-78
2023/10/07 01:45:39;;;;;;;6.35;3.13;;;;;11.50;94855.00;;;;7396912;19;20163;-77
2023/10/07 01:48:17;;;;;;;6.65;3.50;;;;;11.30;94857.00;;;;7395414;19;20615;-79
2023/10/07 01:50:51;;;;;;;7.50;3.90;;;;;11.10;94862.00;;;;7395108;19;20182;-79
2023/10/07 01:53:27;;;;;;;5.53;3.22;;;;;11.00;94860.00;;;;7396167;19;20144;-77
2023/10/07 01:55:56;;;;;;;7.78;3.28;;;;;10.40;94868.00;;;;7395990;19;20274;-78
2023/10/07 01:58:31;;;;;;;8.93;3.10;;;;;10.00;94864.00;;;;7396592;19;20678;-78
2023/10/07 02:01:05;;;;;;;6.45;3.33;;;;;9.60;94877.00;;;;7395170;19;20500;-81
2023/10/07 02:03:57;;;;;;;5.25;3.22;;;;;10.10;94866.00;;;;7396422;19;20213;-78
2023/10/07 02:06:42;;;;;;;5.63;3.13;;;;;10.00;94868.00;;;;7395337;19;20141;-77
2023/10/07 02:09:24;;;;;;;5.78;2.95;;;;;9.90;94873.00;;;;7397202;19;20147;-78
2023/10/07 02:11:57;;;;;;;5.72;2.95;;;;;10.30;94868.00;;;;7395043;19;20160;-78
2023/10/07 02:14:34;;;;;;;6.72;3.45;;;;;10.80;94868.00;;;;7397833;19;20133;-78
2023/10/07 02:17:08;;;;;;;5.45;3.17;;;;;11.00;94873.00;;;;7393967;19;20632;-76
2023/10/07 02:19:43;;;;;;;6.63;3.33;;;;;10.80;94869.00;;;;7396707;19;20148;-79
2023/10/07 02:22:22;;;;;;;5.80;3.03;;;;;11.10;94863.00;;;;7398785;19;20560;-79
2023/10/07 02:25:02;;;;;;;7.10;3.53;;;;;11.10;94874.00;;;;7398942;19;20148;-80
2023/10/07 02:27:42;;;;;;;6.07;3.20;;;;;11.20;94875.00;;;;7403380;19;20152;-79
2023/10/07 02:30:19;;;;;;;6.05;3.42;;;;;11.40;94870.00;;;;7405266;19;20568;-78
2023/10/07 02:32:54;;;;;;;6.90;3.38;;;;;11.70;94878.00;;;;7397787;19;20467;-77
2023/10/07 02:35:30;;;;;;;7.53;4.15;;;;;11.80;94880.00;;;;7397069;19;20157;-77
2023/10/07 02:38:06;;;;;;;9.13;3.50;;;;;12.10;94871.00;;;;7402732;19;20140;-79
2023/10/07 02:40:50;;;;;;;6.40;3.03;;;;;12.00;94877.00;;;;7403410;19;20137;-77
2023/10/07 02:43:18;;;;;;;7.72;3.58;;;;;11.90;94871.00;;;;7400300;19;20176;-78
2023/10/07 02:45:53;;;;;;;6.68;3.40;;;;;11.80;94884.00;;;;7402345;19;20615;-78
2023/10/07 02:48:34;;;;;;;5.05;2.85;;;;;11.90;94884.00;;;;7401380;19;20145;-77
2023/10/07 02:51:11;;;;;;;6.57;3.45;;;;;12.00;94887.00;;;;7400566;19;20619;-76
2023/10/07 02:53:41;;;;;;;5.75;3.38;;;;;12.10;94882.00;;;;7399869;19;20172;-77
2023/10/07 02:56:17;;;;;;;6.00;3.20;;;;;12.20;94885.00;;;;7401957;19;20173;-79
2023/10/07 02:59:00;;;;;;;9.00;3.85;;;;;12.30;94882.00;;;;7400840;19;20171;-82
2023/10/07 03:01:37;;;;;;;9.40;3.25;;;;;12.50;94882.00;;;;7398537;19;20179;-78
2023/10/07 03:04:10;;;;;;;7.22;3.55;;;;;12.50;94890.00;;;;7400442;19;20152;-78
2023/10/07 03:06:52;;;;;;;9.68;3.47;;;;;12.50;94878.00;;;;7400250;19;20129;-80
2023/10/07 03:09:20;;;;;;;7.03;3.40;;;;;12.70;94885.00;;;;7399165;19;20136;-80
2023/10/07 03:11:54;;;;;;;6.93;3.83;;;;;12.60;94865.00;;;;7400247;19;20152;-78
2023/10/07 03:14:25;;;;;;;8.52;3.92;;;;;12.60;94884.00;;;;7400872;19;20596;-79
2023/10/07 03:17:00;;;;;;;6.97;3.80;;;;;12.80;94867.00;;;;7398982;19;20178;-78
2023/10/07 03:19:46;;;;;;;6.78;4.22;;;;;12.70;94873.00;;;;7401613;19;20155;-77
2023/10/07 03:22:28;;;;;;;6.35;3.92;;;;;12.90;94873.00;;;;7401996;19;20165;-77
2023/10/07 03:25:03;;;;;;;7.85;4.50;;;;;12.80;94865.00;;;;7399463;19;20188;-80
2023/10/07 03:27:39;;;;;;;5.95;3.63;;;;;12.80;94865.00;;;;7399440;19;20591;-79
2023/10/07 03:30:19;;;;;;;7.13;3.50;;;;;12.90;94868.00;;;;7400689;19;20708;-77
2023/10/07 03:32:56;;;;;;;9.68;4.32;;;;;12.90;94880.00;;;;7395778;19;20211;-79
2023/10/07 03:35:45;;;;;;;7.15;3.65;;;;;13.00;94881.00;;;;7399466;19;20136;-78
2023/10/07 03:38:13;;;;;;;9.50;3.90;;;;;12.80;94892.00;;;;7399119;19;20132;-77
2023/10/07 03:40:53;;;;;;;6.90;3.83;;;;;12.80;94897.00;;;;7399518;19;20165;-77
2023/10/07 03:43:25;;;;;;;7.88;4.15;;;;;12.70;94894.00;;;;7400883;19;20478;-80
2023/10/07 03:46:00;;;;;;;7.85;3.72;;;;;12.80;94902.00;;;;7396783;19;20240;-81
2023/10/07 03:48:35;;;;;;;8.60;3.90;;;;;12.80;94904.00;;;;7406093;19;20144;-79
2023/10/07 03:51:06;;;;;;;6.72;3.75;;;;;12.90;94894.00;;;;7401700;19;20741;-78
2023/10/07 03:53:44;;;;;;;7.03;3.83;;;;;12.80;94892.00;;;;7402041;19;20633;-79
2023/10/07 03:56:20;;;;;;;12.57;3.97;;;;;12.70;94897.00;;;;7401221;19;20141;-78
2023/10/07 03:58:49;;;;;;;9.43;3.90;;;;;12.70;94892.00;;;;7402175;19;20228;-81
2023/10/07 04:01:26;;;;;;;10.02;4.50;;;;;12.50;94884.00;;;;7398639;19;20569;-78
2023/10/07 04:03:59;;;;;;;8.88;4.20;;;;;12.40;94895.00;;;;7399117;19;20821;-78
2023/10/07 04:06:40;;;;;;;13.60;4.15;;;;;12.30;94885.00;;;;7397663;19;20152;-81
2023/10/07 04:09:15;;;;;;;13.98;4.40;;;;;12.30;94892.00;;;;7398208;19;20657;-78
2023/10/07 04:11:49;;;;;;;7.68;4.07;;;;;12.30;94894.00;;;;7398701;19;20164;-77
2023/10/07 04:14:31;;;;;;;9.00;4.15;;;;;12.30;94900.00;;;;7396485;19;20140;-81
2023/10/07 04:17:00;;;;;;;11.77;4.13;;;;;12.10;94883.00;;;;7398000;19;20204;-78
2023/10/07 04:19:38;;;;;;;7.40;3.95;;;;;12.20;94883.00;;;;7398019;19;20215;-79
2023/10/07 04:22:08;;;;;;;8.30;4.25;;;;;12.20;94874.00;;;;7398076;19;20145;-79
2023/10/07 04:24:44;;;;;;;9.52;4.07;;;;;12.10;94879.00;;;;7399835;19;20132;-77
2023/10/07 04:27:19;;;;;;;8.50;3.42;;;;;12.10;94866.00;;;;7397948;19;20172;-76
2023/10/07 04:29:54;;;;;;;9.70;4.10;;;;;12.10;94859.00;;;;7398694;19;20604;-77
2023/10/07 04:32:22;;;;;;;8.50;3.90;;;;;12.20;94879.00;;;;7397500;19;20155;-78
2023/10/07 04:38:00;;;;;;;7.15;4.07;;;;;12.10;94882.00;;;;7395709;19;20125;-78
2023/10/07 04:40:53;;;;;;;6.97;3.67;;;;;12.20;94881.00;;;;7399999;19;20528;-77
2023/10/07 04:43:31;;;;;;;8.43;4.10;;;;;12.30;94875.00;;;;7397009;19;20137;-79
2023/10/07 04:46:22;;;;;;;8.85;3.42;;;;;12.30;94876.00;;;;7398002;19;20136;-76
2023/10/07 04:48:54;;;;;;;6.30;3.47;;;;;12.30;94875.00;;;;7397684;19;20125;-76
2023/10/07 04:54:04;;;;;;;8.45;3.70;;;;;12.30;94890.00;;;;7394762;19;20145;-78
2023/10/07 04:56:39;;;;;;;7.68;3.90;;;;;12.30;94894.00;;;;7394147;19;20116;-79
2023/10/07 04:59:09;;;;;;;7.60;3.78;;;;;12.10;94898.00;;;;7396590;19;20464;-78
2023/10/07 05:01:48;;;;;;;7.65;3.67;;;;;11.90;94909.00;;;;7397140;19;20602;-77
2023/10/07 05:04:24;;;;;;;9.73;4.25;;;;;11.70;94915.00;;;;7395939;19;20148;-76
2023/10/07 05:07:00;;;;;;;10.30;3.50;;;;;11.60;94921.00;;;;7394548;19;20517;-78
2023/10/07 05:09:28;;;;;;;6.60;3.17;;;;;11.30;94924.00;;;;7390702;19;20230;-78
2023/10/07 05:12:06;;;;;;;6.50;3.28;;;;;10.80;94927.00;;;;7384350;19;20145;-78
2023/10/07 05:14:36;;;;;;;11.18;3.90;;;;;10.70;94926.00;;;;7382191;19;20524;-78
2023/10/07 05:17:11;;;;;;;7.57;3.58;;;;;10.50;94928.00;;;;7384702;19;20152;-77
2023/10/07 05:19:39;;;;;;;7.32;3.90;;;;;10.50;94935.00;;;;7385677;19;20160;-79
2023/10/07 05:22:14;;;;;;;8.40;3.85;;;;;10.40;94938.00;;;;7384494;19;20207;-77
2023/10/07 05:24:46;;;;;;;5.32;2.97;;;;;10.40;94940.00;;;;7387532;19;20156;-78
2023/10/07 05:27:21;;;;;;;7.35;3.20;;;;;10.10;94931.00;;;;7386504;19;20148;-77
2023/10/07 05:29:50;;;;;;;6.13;3.13;;;;;10.50;94938.00;;;;7385559;19;20485;-79
2023/10/07 05:32:21;;;;;;;7.57;3.70;;;;;10.60;94927.00;;;;7385328;19;20152;-79
2023/10/07 05:34:57;;;;;;;7.50;3.63;;;;;10.90;94927.00;;;;7386474;19;20168;-77
2023/10/07 05:37:25;;;;;;;8.23;3.55;;;;;11.00;94923.00;;;;7386118;19;20133;-76
2023/10/07 05:40:03;;;;;;;7.72;3.83;;;;;11.20;94921.00;;;;7384819;19;20139;-77
2023/10/07 05:42:31;;;;;;;7.18;3.38;;;;;11.20;94922.00;;;;7384102;19;20153;-77
2023/10/07 05:45:08;;;;;;;7.60;3.85;;;;;11.30;94921.00;;;;7384396;19;20216;-77
2023/10/07 05:47:45;;;;;;;12.13;4.35;;;;;11.50;94921.00;;;;7383426;19;20464;-76
2023/10/07 05:50:22;;;;;;;9.77;3.60;;;;;11.60;94916.00;;;;7386845;19;20156;-78
2023/10/07 05:52:50;;;;;;;8.23;3.65;;;;;11.60;94909.00;;;;7386484;19;20584;-75
2023/10/07 05:55:25;;;;;;;8.00;3.47;;;;;11.70;94915.00;;;;7381116;19;20603;-77
2023/10/07 05:58:02;;;;;;;8.23;3.65;;;;;11.70;94919.00;;;;7384296;19;20734;-79
2023/10/07 06:00:43;;;;;;;10.07;3.83;;;;;11.80;94913.00;;;;7387802;19;20471;-77
2023/10/07 06:03:12;;;;;;;6.55;3.53;;;;;11.80;94918.00;;;;7388860;19;20593;-76
2023/10/07 06:05:52;;;;;;;10.07;3.75;;;;;11.90;94910.00;;;;7387557;19;20845;-76
2023/10/07 06:08:29;;;;;;;6.88;3.67;;;;;11.90;94916.00;;;;7388927;19;20596;-74
2023/10/07 06:11:04;;;;;;;6.85;3.50;;;;;12.00;94912.00;;;;7388829;19;20128;-74
2023/10/07 06:13:33;;;;;;;7.22;3.28;;;;;12.10;94910.00;;;;7387561;19;20139;-76
2023/10/07 06:16:08;;;;;;;7.55;3.25;;;;;12.10;94912.00;;;;7389401;19;20132;-75
2023/10/07 06:18:37;;;;;;;5.68;3.40;;;;;12.30;94922.00;;;;7389698;19;20136;-77
2023/10/07 06:21:19;;;;;;;8.55;3.25;;;;;12.60;94912.00;;;;7391401;19;20139;-75
2023/10/07 06:23:49;;;;;;;7.53;3.17;;;;;12.70;94923.00;;;;7387423;19;20537;-76
2023/10/07 06:26:24;;;;;;;6.07;2.90;;;;;13.10;94926.00;;;;7390104;19;20150;-75
2023/10/07 06:28:51;;;;;;;7.45;3.28;;;;;13.30;94914.00;;;;7389190;19;20503;-76
2023/10/07 06:31:31;;;;;;;7.35;3.03;;;;;13.50;94908.00;;;;7389360;19;20200;-75
2023/10/07 06:34:00;;;;;;;9.45;3.78;;;;;13.60;94912.00;;;;7389748;19;20129;-75
2023/10/07 06:36:34;;;;;;;5.07;3.00;;;;;13.90;94916.00;;;;7386470;19;20600;-76
2023/10/07 06:39:02;;;;;;;6.25;2.70;;;;;13.80;94915.00;;;;7387589;19;20216;-75
2023/10/07 06:41:36;;;;;;;8.38;3.20;;;;;13.60;94929.00;;;;7388545;19;20151;-77
2023/10/07 06:44:11;;;;;;;5.20;2.75;;;;;13.40;94934.00;;;;7388664;19;20175;-77
2023/10/07 06:46:48;;;;;;;6.45;2.90;;;;;13.40;94931.00;;;;7389072;19;20136;-77
2023/10/07 06:49:23;;;;;;;4.82;2.75;;;;;13.20;94940.00;;;;7386506;19;20865;-75
2023/10/07 06:51:58;;;;;;;4.60;2.40;;;;;13.20;94942.00;;;;7388181;19;20169;-76
2023/10/07 06:54:32;;;;;;;6.20;3.15;;;;;13.00;94958.00;;;;7387809;19;20514;-77
2023/10/07 06:57:29;;;;;;;6.35;2.53;;;;;12.70;94957.00;;;;7389207;19;20174;-78
2023/10/07 06:59:57;;;;;;;5.68;3.03;;;;;12.50;94957.00;;;;7386126;19;20164;-79
2023/10/07 07:02:35;;;;;;;6.32;2.42;;;;;12.40;94958.00;;;;7385733;19;20207;-78
2023/10/07 07:05:16;;;;;;;5.00;2.83;;;;;12.60;94962.00;;;;7388878;19;20180;-76
2023/10/07 07:07:54;;;;;;;5.95;2.75;;;;;12.80;94955.00;;;;7389627;19;20144;-78
2023/10/07 07:10:28;;;;;;;6.40;3.05;;;;;13.30;94964.00;;;;7388603;19;21682;-78
2023/10/07 07:13:12;;;;;;;5.18;2.65;;;;;13.90;94958.00;;;;7389281;19;20615;-79
2023/10/07 07:16:06;;;;;;;4.85;2.75;;;;;14.00;94964.00;;;;7389614;19;20159;-78
2023/10/07 07:18:40;;;;;;;4.15;2.50;;;;;14.10;94961.00;;;;7387666;19;20491;-75
2023/10/07 07:24:04;;;;;;;4.43;2.83;;;;;13.80;94975.00;;;;7388332;19;20124;-77
2023/10/07 07:26:32;;;;;;;6.07;3.45;;;;;13.60;94985.00;;;;7391712;19;20144;-77
2023/10/07 07:29:17;;;;;;;8.27;3.10;;;;;13.50;94974.00;;;;7388357;19;20152;-78
2023/10/07 07:31:46;;;;;;;7.45;3.17;;;;;13.60;94975.00;;;;7387563;19;20499;-77
2023/10/07 07:34:25;;;;;;;7.90;2.97;;;;;14.40;94967.00;;;;7389139;19;20258;-76
2023/10/07 07:37:02;;;;;;;8.27;3.38;;;;;14.70;94976.00;;;;7390099;19;20132;-78
2023/10/07 07:39:37;;;;;;;7.55;2.83;;;;;15.10;94969.00;;;;7387423;19;20178;-77
2023/10/07 07:42:22;;;;;;;5.10;3.10;;;;;15.40;94986.00;;;;7387618;19;20616;-78
2023/10/07 07:44:57;;;;;;;8.57;3.83;;;;;15.20;94971.00;;;;7389434;19;20152;-77
2023/10/07 07:47:30;;;;;;;8.70;3.20;;;;;15.40;94968.00;;;;7388368;19;20528;-77
2023/10/07 07:50:08;;;;;;;4.65;2.85;;;;;15.60;94979.00;;;;7386930;19;20583;-77
2023/10/07 07:52:36;;;;;;;5.25;2.67;;;;;15.60;94979.00;;;;7387473;19;20496;-78
2023/10/07 07:55:14;;;;;;;6.40;3.10;;;;;15.30;94997.00;;;;7386608;19;20128;-78
2023/10/07 07:57:44;;;;;;;5.05;2.90;;;;;15.50;94987.00;;;;7386476;19;20151;-79
2023/10/07 08:00:21;;;;;;;6.20;3.05;;;;;15.40;94997.00;;;;7388800;19;20128;-75
2023/10/07 08:02:55;;;;;;;4.38;2.67;;;;;15.40;95002.00;;;;7386881;19;20137;-78
2023/10/07 08:05:42;;;;;;;4.20;2.47;;;;;15.20;94994.00;;;;7387018;19;20167;-76
2023/10/07 08:08:24;;;;;;;7.32;3.10;;;;;15.20;95004.00;;;;7388539;19;20129;-76
2023/10/07 08:11:01;;;;;;;4.25;2.60;;;;;15.10;95004.00;;;;7387463;19;20129;-78
2023/10/07 08:13:29;;;;;;;5.75;2.90;;;;;15.20;95003.00;;;;7388197;19;20142;-75
2023/10/07 08:16:06;;;;;;;5.07;2.92;;;;;15.30;94990.00;;;;7388463;19;20580;-76
2023/10/07 08:18:33;;;;;;;5.07;2.90;;;;;15.30;94992.00;;;;7387772;19;20148;-76
2023/10/07 08:21:16;;;;;;;4.95;2.53;;;;;15.30;94994.00;;;;7386541;19;20631;-76
2023/10/07 08:23:45;;;;;;;6.45;2.83;;;;;15.30;95003.00;;;;7383574;19;20129;-73
2023/10/07 08:26:23;;;;;;;5.45;2.50;;;;;15.30;95001.00;;;;7387419;19;20615;-76
2023/10/07 08:31:39;;;;;;;7.45;2.78;;;;;15.70;95000.00;;;;7387877;19;20159;-76
2023/10/07 08:34:15;;;;;;;6.05;3.08;;;;;15.80;95012.00;;;;7387400;19;20136;-77
2023/10/07 08:36:43;;;;;;;7.28;3.10;;;;;16.20;95009.00;;;;7386929;19;20200;-76
2023/10/07 08:39:13;;;;;;;3.95;2.40;;;;;16.50;95004.00;;;;7386303;19;20155;-76
2023/10/07 08:41:52;;;;;;;6.13;3.10;;;;;16.70;94993.00;;;;7387282;19;20156;-74
2023/10/07 08:44:31;;;;;;;6.30;2.60;;;;;17.40;94991.00;;;;7387831;19;20486;-76
2023/10/07 08:47:11;;;;;;;4.72;2.60;;;;;17.30;95005.00;;;;7385039;19;20176;-75
2023/10/07 08:49:43;;;;;;;4.47;2.50;;;;;17.00;94997.00;;;;7385748;19;20145;-75
2023/10/07 08:52:19;;;;;;;4.80;2.83;;;;;16.90;94997.00;;;;7388706;19;20584;-78
2023/10/07 08:54:55;;;;;;;5.38;2.83;;;;;16.80;95007.00;;;;7385431;19;20184;-77
2023/10/07 08:57:34;;;;;;;4.40;2.55;;;;;16.70;95015.00;;;;7386446;19;20151;-77
2023/10/07 09:00:11;;;;;;;7.22;2.50;;;;;16.90;95017.00;;;;7387447;19;20153;-75
2023/10/07 09:02:47;;;;;;;6.43;2.60;;;;;17.10;95015.00;;;;7387557;19;20204;-75
2023/10/07 09:05:20;;;;;;;7.90;2.55;;;;;16.80;95017.00;;;;7385270;19;20185;-74
2023/10/07 09:07:56;;;;;;;4.45;2.70;;;;;16.70;95016.00;;;;7386567;19;20192;-77
2023/10/07 09:10:28;;;;;;;8.02;2.65;;;;;16.70;95023.00;;;;7388774;19;20603;-76
2023/10/07 09:13:06;;;;;;;7.03;2.42;;;;;16.60;95020.00;;;;7388319;19;20129;-75
2023/10/07 09:15:36;;;;;;;4.55;2.70;;;;;16.40;95026.00;;;;7387017;19;20145;-75
2023/10/07 09:18:10;;;;;;;5.18;2.60;;;;;16.30;95032.00;;;;7388220;19;20151;-76
2023/10/07 09:20:45;;;;;;;5.20;2.42;;;;;16.30;95032.00;;;;7387335;19;20667;-76
2023/10/07 09:23:20;;;;;;;5.40;2.50;;;;;16.30;95031.00;;;;7385510;19;20160;-76
2023/10/07 09:25:51;;;;;;;3.25;2.15;;;;;16.10;95032.00;;;;7388040;19;20129;-76
2023/10/07 09:28:36;;;;;;;5.32;2.47;;;;;16.20;95033.00;;;;7384365;19;20204;-75
2023/10/07 09:31:12;;;;;;;4.93;2.28;;;;;16.00;95039.00;;;;7384704;19;20149;-75
2023/10/07 09:33:41;;;;;;;2.72;1.90;;;;;16.50;95034.00;;;;7384845;19;20152;-77
2023/10/07 09:36:33;;;;;;;4.75;2.17;;;;;16.70;95035.00;;;;7386102;19;20129;-77
2023/10/07 09:42:03;;;;;;;5.47;2.15;;;;;17.20;95041.00;;;;7384120;19;20219;-75
2023/10/07 09:44:38;;;;;;;6.18;2.45;;;;;17.60;95040.00;;;;7384817;19;20159;-74
2023/10/07 09:47:19;;;;;;;4.25;2.38;;;;;18.10;95040.00;;;;7385157;19;20144;-75
2023/10/07 09:49:58;;;;;;;7.00;2.42;;;;;18.80;95037.00;;;;7384275;19;20148;-76
2023/10/07 09:52:32;;;;;;;3.85;2.20;;;;;19.50;95030.00;;;;7382929;19;20148;-76
2023/10/07 09:55:28;;;;;;;3.42;2.20;;;;;19.30;95017.00;;;;7383533;19;20164;-77
2023/10/07 09:58:06;;;;;;;4.47;2.30;;;;;19.80;95023.00;;;;7385947;19;20157;-75
2023/10/07 10:01:05;;;;;;;4.35;2.38;;;;;19.60;95035.00;;;;7382996;19;20153;-73
2023/10/07 10:04:13;;;;;;;3.15;2.10;;;;;18.80;95037.00;;;;7386350;19;20141;-78
2023/10/07 10:07:14;;;;;;;5.35;2.30;;;;;18.30;95038.00;;;;7384238;19;20129;-75
2023/10/07 10:10:00;;;;;;;3.20;2.20;;;;;18.70;95034.00;;;;7384466;19;20145;-74
2023/10/07 10:12:56;;;;;;;4.13;2.22;;;;;18.10;95036.00;;;;7383564;19;20188;-74
2023/10/07 10:18:40;;;;;;;4.25;2.08;;;;;18.50;95042.00;;;;7384181;19;20132;-74
2023/10/07 10:21:30;;;;;;;3.83;2.45;;;;;18.70;95038.00;;;;7382212;19;20160;-76
2023/10/07 10:24:14;;;;;;;3.22;2.05;;;;;18.90;95042.00;;;;7382239;19;20644;-77
2023/10/07 10:26:44;;;;;;;3.85;1.95;;;;;19.30;95043.00;;;;7385631;19;20456;-76
2023/10/07 10:29:25;;;;;;;3.58;2.35;;;;;19.50;95035.00;;;;7381825;19;20153;-75
2023/10/07 10:32:00;;;;;;;4.55;2.60;;;;;19.00;95040.00;;;;7384537;19;20640;-76
2023/10/07 10:34:35;;;;;;;6.72;2.33;;;;;19.10;95036.00;;;;7379799;19;20140;-77
2023/10/07 10:37:06;;;;;;;5.47;2.38;;;;;18.70;95035.00;;;;7382299;19;20150;-78
2023/10/07 10:39:39;;;;;;;6.63;2.55;;;;;18.80;95040.00;;;;7383143;19;20619;-75
2023/10/07 10:42:14;;;;;;;3.50;2.35;;;;;18.80;95041.00;;;;7381722;19;20149;-78
2023/10/07 10:44:46;;;;;;;4.30;2.22;;;;;19.00;95040.00;;;;7383058;19;20141;-73
2023/10/07 10:47:22;;;;;;;3.78;1.95;;;;;19.00;95041.00;;;;7388977;19;20144;-75
2023/10/07 10:49:56;;;;;;;5.53;2.53;;;;;19.20;95034.00;;;;7390665;19;20132;-74
2023/10/07 10:52:24;;;;;;;5.28;2.53;;;;;19.50;95030.00;;;;7391274;19;20133;-74
2023/10/07 10:55:03;;;;;;;4.97;2.78;;;;;19.80;95021.00;;;;7390046;19;20149;-74
2023/10/07 10:57:40;;;;;;;4.15;2.10;;;;;19.50;95025.00;;;;7387361;19;20608;-76
2023/10/07 11:00:22;;;;;;;4.80;2.40;;;;;19.60;95026.00;;;;7387007;19;20145;-75
2023/10/07 11:03:03;;;;;;;4.32;2.50;;;;;19.30;95021.00;;;;7389904;19;20148;-75
2023/10/07 11:05:38;;;;;;;4.25;2.45;;;;;19.40;95022.00;;;;7386886;19;20184;-74
2023/10/07 11:08:28;;;;;;;4.75;2.10;;;;;19.50;95032.00;;;;7387767;19;20148;-76
2023/10/07 11:11:00;;;;;;;4.50;2.40;;;;;19.50;95027.00;;;;7388626;19;20152;-76
2023/10/07 11:13:39;;;;;;;3.47;2.40;;;;;19.40;95033.00;;;;7392229;19;20576;-76
2023/10/07 11:16:10;;;;;;;4.38;2.20;;;;;19.20;95024.00;;;;7388384;19;20148;-75
2023/10/07 11:18:46;;;;;;;3.15;2.20;;;;;18.90;95036.00;;;;7387364;19;20213;-77
2023/10/07 11:21:18;;;;;;;5.47;2.53;;;;;18.40;95037.00;;;;7389531;19;20129;-76
2023/10/07 11:23:52;;;;;;;4.32;2.22;;;;;18.50;95033.00;;;;7388649;19;20220;-74
2023/10/07 11:26:32;;;;;;;8.75;2.95;;;;;18.50;95027.00;;;;7388037;19;20156;-73
2023/10/07 11:29:13;;;;;;;4.13;2.42;;;;;18.30;95031.00;;;;7387688;19;20148;-74
2023/10/07 11:31:41;;;;;;;5.18;2.70;;;;;18.10;95028.00;;;;7387592;19;20489;-75
2023/10/07 11:34:19;;;;;;;7.25;2.50;;;;;18.20;95028.00;;;;7387858;19;20152;-73
2023/10/07 11:36:48;;;;;;;5.75;2.50;;;;;18.10;95032.00;;;;7386016;19;20152;-76
2023/10/07 11:39:23;;;;;;;5.32;2.70;;;;;18.40;95026.00;;;;7389026;19;20209;-74
2023/10/07 11:41:56;;;;;;;10.32;2.90;;;;;18.40;95024.00;;;;7386525;19;20148;-73
2023/10/07 11:44:30;;;;;;;6.15;2.42;;;;;18.40;95035.00;;;;7384836;19;20128;-74
2023/10/07 11:47:15;;;;;;;6.28;2.50;;;;;18.40;95021.00;;;;7386670;19;23517;-73
2023/10/07 11:49:49;;;;;;;4.20;2.83;;;;;18.30;95029.00;;;;7385885;19;20667;-76
2023/10/07 11:52:19;;;;;;;3.30;2.30;;;;;18.20;95024.00;;;;7385712;19;20208;-73
2023/10/07 11:54:53;;;;;;;5.15;2.78;;;;;18.40;95027.00;;;;7385663;19;20483;-74
2023/10/07 11:57:28;;;;;;;7.72;2.42;;;;;18.30;95014.00;;;;7382098;19;20152;-73
2023/10/07 12:00:09;;;;;;;6.25;2.60;;;;;18.30;95013.00;;;;7384874;19;20592;-73
2023/10/07 12:02:43;;;;;;;8.57;2.70;;;;;18.20;95013.00;;;;7385203;19;20209;-75
2023/10/07 12:05:10;;;;;;;3.80;2.50;;;;;18.50;95000.00;;;;7380454;19;20176;-74
2023/10/07 12:07:52;;;;;;;4.75;2.65;;;;;18.70;95010.00;;;;7382296;19;20152;-74
2023/10/07 12:10:22;;;;;;;4.85;2.67;;;;;18.60;94998.00;;;;7381926;19;20595;-74
2023/10/07 12:12:58;;;;;;;4.13;2.67;;;;;18.70;95009.00;;;;7384497;19;20612;-76
2023/10/07 12:15:26;;;;;;;4.90;2.88;;;;;18.90;95013.00;;;;7383914;19;20265;-74
2023/10/07 12:17:54;;;;;;;5.75;2.88;;;;;19.10;95006.00;;;;7383165;19;20156;-76
2023/10/07 12:20:29;;;;;;;5.55;2.92;;;;;18.90;95011.00;;;;7384650;19;20245;-73
2023/10/07 12:23:04;;;;;;;4.60;2.72;;;;;18.90;95010.00;;;;7382570;19;20630;-74
2023/10/07 12:25:41;;;;;;;4.25;2.38;;;;;18.80;95009.00;;;;7382718;19;20614;-73
2023/10/07 12:28:09;;;;;;;5.97;2.70;;;;;19.00;95004.00;;;;7383026;19;20125;-74
2023/10/07 12:30:44;;;;;;;5.13;3.00;;;;;19.10;95010.00;;;;7382576;19;22846;-75
2023/10/07 12:33:12;;;;;;;4.38;2.63;;;;;19.20;95013.00;;;;7382009;19;20145;-73
2023/10/07 12:36:10;;;;;;;4.43;2.45;;;;;19.30;95003.00;;;;7382033;19;20160;-74
2023/10/07 12:38:46;;;;;;;3.95;2.33;;;;;19.10;95009.00;;;;7383193;19;20467;-78
2023/10/07 12:41:14;;;;;;;7.05;2.92;;;;;19.20;94998.00;;;;7381655;19;20153;-76
2023/10/07 12:43:49;;;;;;;5.03;2.78;;;;;19.30;94997.00;;;;7381131;19;20152;-75
2023/10/07 12:46:24;;;;;;;5.35;2.78;;;;;19.80;94991.00;;;;7384467;19;20132;-75
2023/10/07 12:48:58;;;;;;;7.03;2.70;;;;;20.80;94986.00;;;;7383652;19;20148;-75
2023/10/07 12:51:26;;;;;;;6.50;3.08;;;;;21.30;94989.00;;;;7383198;19;20157;-76
2023/10/07 12:53:58;;;;;;;5.10;2.97;;;;;21.30;94994.00;;;;7383206;19;20596;-75
2023/10/07 12:56:33;;;;;;;4.40;2.33;;;;;20.80;95007.00;;;;7382304;19;20150;-75
2023/10/07 12:59:07;;;;;;;4.22;2.75;;;;;20.60;95005.00;;;;7383552;19;21129;-75
2023/10/07 13:01:44;;;;;;;3.50;2.42;;;;;20.70;95015.00;;;;7381013;19;20176;-76
2023/10/07 13:04:26;;;;;;;6.00;2.78;;;;;20.50;95021.00;;;;7383387;19;20488;-73
2023/10/07 13:07:03;;;;;;;4.78;2.78;;;;;20.60;95012.00;;;;7380942;19;20160;-74
2023/10/07 13:09:42;;;;;;;5.60;3.05;;;;;20.90;95030.00;;;;7381095;19;20165;-74
2023/10/07 13:12:15;;;;;;;5.10;2.55;;;;;21.10;95022.00;;;;7381313;19;20145;-73
2023/10/07 13:14:50;;;;;;;5.43;2.33;;;;;21.40;95025.00;;;;7382132;19;20469;-74
2023/10/07 13:17:35;;;;;;;4.93;2.70;;;;;21.30;95012.00;;;;7381102;19;20223;-77
2023/10/07 13:20:27;;;;;;;5.25;2.80;;;;;21.50;95013.00;;;;7382570;19;20131;-79
2023/10/07 13:23:05;;;;;;;3.75;2.55;;;;;21.90;95009.00;;;;7383357;19;20664;-77
2023/10/07 13:25:40;;;;;;;5.65;2.75;;;;;21.90;95015.00;;;;7381441;19;20143;-78
2023/10/07 13:28:11;;;;;;;4.18;3.00;;;;;21.80;95010.00;;;;7380841;19;20611;-76
2023/10/07 13:30:46;;;;;;;3.80;2.53;;;;;21.90;95015.00;;;;7384471;19;20583;-75
2023/10/07 13:33:14;;;;;;;4.70;3.00;;;;;22.20;95002.00;;;;7387213;19;20201;-75